Time,TemperatureF,DewpointF,PressureIn,WindDirection,WindDirectionDegrees,WindSpeedMPH,WindSpeedGustMPH,Humidity,HourlyPrecipIn,Conditions,Clouds,dailyrainin,SoftwareType,DateUTC
2013-08-25 00:01:00,62.4,57.0,30.29,SW,214,0.0,2.0,83,0.00,,,0.00,weatherlink.com 1.10,2013-08-25 04:01:00,
2013-08-25 00:19:00,63.2,57.0,30.29,NNW,328,0.0,3.0,81,0.00,,,0.00,weatherlink.com 1.10,2013-08-25 04:19:00,
2013-08-25 00:37:00,63.8,58.0,30.29,East,86,0.0,3.0,80,0.00,,,0.00,weatherlink.com 1.10,2013-08-25 04:37:00,
2013-08-25 00:57:00,64.1,57.0,30.29,South,176,0.0,3.0,79,0.00,,,0.00,weatherlink.com 1.10,2013-08-25 04:57:00,
2013-08-25 01:15:00,64.2,57.0,30.29,NNW,347,2.0,6.0,78,0.00,,,0.00,weatherlink.com 1.10,2013-08-25 05:15:00,
2013-08-25 01:33:00,65.1,57.0,30.28,SW,222,2.0,4.0,74,0.00,,,0.00,weatherlink.com 1.10,2013-08-25 05:33:00,
2013-08-25 01:51:00,65.9,56.0,30.28,East,101,0.0,6.0,71,0.00,,,0.00,weatherlink.com 1.10,2013-08-25 05:51:00,
2013-08-25 02:11:00,66.0,56.0,30.28,ENE,57,2.0,8.0,70,0.00,,,0.00,weatherlink.com 1.10,2013-08-25 06:11:00,
2013-08-25 02:29:00,64.6,56.0,30.29,SE,134,0.0,4.0,74,0.00,,,0.00,weatherlink.com 1.10,2013-08-25 06:29:00,
2013-08-25 02:47:00,62.5,56.0,30.29,SE,125,0.0,3.0,79,0.00,,,0.00,weatherlink.com 1.10,2013-08-25 06:47:00,
2013-08-25 03:07:00,61.7,56.0,30.30,SE,127,0.0,2.0,81,0.00,,,0.00,weatherlink.com 1.10,2013-08-25 07:07:00,
2013-08-25 03:25:00,61.4,56.0,30.30,SE,129,0.0,3.0,81,0.00,,,0.00,weatherlink.com 1.10,2013-08-25 07:25:00,
2013-08-25 03:43:00,61.6,55.0,30.30,ESE,120,0.0,2.0,80,0.00,,,0.00,weatherlink.com 1.10,2013-08-25 07:43:00,
2013-08-25 04:03:00,61.4,56.0,30.29,ENE,72,0.0,2.0,81,0.00,,,0.00,weatherlink.com 1.10,2013-08-25 08:03:00,
2013-08-25 04:21:00,61.5,55.0,30.30,East,80,0.0,1.0,80,0.00,,,0.00,weatherlink.com 1.10,2013-08-25 08:21:00,
2013-08-25 04:39:00,61.6,55.0,30.31,ESE,103,0.0,2.0,79,0.00,,,0.00,weatherlink.com 1.10,2013-08-25 08:39:00,
2013-08-25 04:58:00,62.1,55.0,30.31,ENE,57,0.0,3.0,77,0.00,,,0.00,weatherlink.com 1.10,2013-08-25 08:58:00,
2013-08-25 05:16:00,63.8,55.0,30.32,East,91,1.0,5.0,73,0.00,,,0.00,weatherlink.com 1.10,2013-08-25 09:16:00,
2013-08-25 05:34:00,63.6,55.0,30.33,ENE,64,1.0,3.0,73,0.00,,,0.00,weatherlink.com 1.10,2013-08-25 09:34:00,
2013-08-25 05:54:00,61.6,55.0,30.33,ENE,71,0.0,0.0,78,0.00,,,0.00,weatherlink.com 1.10,2013-08-25 09:54:00,
2013-08-25 06:12:00,59.5,54.0,30.33,ENE,71,0.0,0.0,83,0.00,,,0.00,weatherlink.com 1.10,2013-08-25 10:12:00,
2013-08-25 06:30:00,58.4,54.0,30.34,East,84,0.0,3.0,86,0.00,,,0.00,weatherlink.com 1.10,2013-08-25 10:30:00,
2013-08-25 06:50:00,58.0,54.0,30.34,ENE,75,1.0,1.0,87,0.00,,,0.00,weatherlink.com 1.10,2013-08-25 10:50:00,
2013-08-25 07:08:00,60.8,56.0,30.35,East,90,2.0,5.0,83,0.00,,,0.00,weatherlink.com 1.10,2013-08-25 11:08:00,
2013-08-25 07:26:00,62.8,56.0,30.35,NE,41,0.0,3.0,78,0.00,,,0.00,weatherlink.com 1.10,2013-08-25 11:26:00,
2013-08-25 07:44:00,63.5,56.0,30.35,NE,50,1.0,3.0,77,0.00,,,0.00,weatherlink.com 1.10,2013-08-25 11:44:00,
2013-08-25 08:04:00,64.9,58.0,30.36,East,98,0.0,3.0,77,0.00,,,0.00,weatherlink.com 1.10,2013-08-25 12:04:00,
2013-08-25 08:22:00,66.8,58.0,30.35,NE,47,2.0,4.0,73,0.00,,,0.00,weatherlink.com 1.10,2013-08-25 12:22:00,
2013-08-25 08:40:00,68.5,59.0,30.35,ESE,113,0.0,4.0,72,0.00,,,0.00,weatherlink.com 1.10,2013-08-25 12:40:00,
2013-08-25 09:00:00,70.9,61.0,30.36,ENE,68,2.0,5.0,70,0.00,,,0.00,weatherlink.com 1.10,2013-08-25 13:00:00,
2013-08-25 09:18:00,71.4,61.0,30.35,NE,46,1.0,3.0,69,0.00,,,0.00,weatherlink.com 1.10,2013-08-25 13:18:00,
2013-08-25 09:36:00,72.6,61.0,30.35,NE,53,3.0,4.0,68,0.00,,,0.00,weatherlink.com 1.10,2013-08-25 13:36:00,
2013-08-25 09:56:00,72.6,62.0,30.34,ENE,58,3.0,5.0,69,0.00,,,0.00,weatherlink.com 1.10,2013-08-25 13:56:00,
2013-08-25 10:14:00,73.2,61.0,30.35,ENE,63,4.0,7.0,66,0.00,,,0.00,weatherlink.com 1.10,2013-08-25 14:14:00,
2013-08-25 10:32:00,73.9,62.0,30.35,NE,56,4.0,10.0,67,0.00,,,0.00,weatherlink.com 1.10,2013-08-25 14:32:00,
2013-08-25 10:52:00,74.6,62.0,30.35,ENE,58,11.0,11.0,66,0.00,,,0.00,weatherlink.com 1.10,2013-08-25 14:52:00,
2013-08-25 11:10:00,75.2,62.0,30.35,NE,53,2.0,8.0,64,0.00,,,0.00,weatherlink.com 1.10,2013-08-25 15:10:00,
2013-08-25 11:28:00,75.5,62.0,30.34,ENE,68,2.0,10.0,64,0.00,,,0.00,weatherlink.com 1.10,2013-08-25 15:28:00,
2013-08-25 11:46:00,76.6,63.0,30.34,ENE,60,5.0,9.0,63,0.00,,,0.00,weatherlink.com 1.10,2013-08-25 15:46:00,
2013-08-25 12:06:00,76.7,62.0,30.34,NE,53,1.0,10.0,61,0.00,,,0.00,weatherlink.com 1.10,2013-08-25 16:06:00,
2013-08-25 12:24:00,77.6,63.0,30.33,NE,41,6.0,7.0,61,0.00,,,0.00,weatherlink.com 1.10,2013-08-25 16:24:00,
2013-08-25 12:42:00,78.7,63.0,30.33,NE,47,6.0,11.0,58,0.00,,,0.00,weatherlink.com 1.10,2013-08-25 16:42:00,
2013-08-25 13:02:00,78.4,63.0,30.32,ENE,57,1.0,8.0,59,0.00,,,0.00,weatherlink.com 1.10,2013-08-25 17:02:00,
2013-08-25 13:20:00,78.8,64.0,30.32,NE,44,2.0,5.0,60,0.00,,,0.00,weatherlink.com 1.10,2013-08-25 17:20:00,
2013-08-25 13:38:00,79.9,63.0,30.31,NE,41,3.0,6.0,57,0.00,,,0.00,weatherlink.com 1.10,2013-08-25 17:38:00,
2013-08-25 13:58:00,79.4,62.0,30.31,East,84,1.0,12.0,55,0.00,,,0.00,weatherlink.com 1.10,2013-08-25 17:58:00,
2013-08-25 14:16:00,80.0,61.0,30.30,NE,46,5.0,8.0,52,0.00,,,0.00,weatherlink.com 1.10,2013-08-25 18:16:00,
2013-08-25 14:34:00,80.6,60.0,30.30,NNE,26,3.0,11.0,49,0.00,,,0.00,weatherlink.com 1.10,2013-08-25 18:34:00,
2013-08-25 14:52:00,81.4,60.0,30.30,ENE,61,3.0,8.0,49,0.00,,,0.00,weatherlink.com 1.10,2013-08-25 18:52:00,
2013-08-25 15:12:00,81.3,61.0,30.29,East,92,0.0,8.0,51,0.00,,,0.00,weatherlink.com 1.10,2013-08-25 19:12:00,
2013-08-25 15:30:00,81.7,61.0,30.28,ESE,107,1.0,6.0,50,0.00,,,0.00,weatherlink.com 1.10,2013-08-25 19:30:00,
2013-08-25 15:48:00,81.9,61.0,30.27,ENE,65,7.0,7.0,49,0.00,,,0.00,weatherlink.com 1.10,2013-08-25 19:48:00,
2013-08-25 16:08:00,81.0,61.0,30.26,NNE,33,3.0,9.0,50,0.00,,,0.00,weatherlink.com 1.10,2013-08-25 20:08:00,
2013-08-25 16:26:00,81.1,62.0,30.27,NNW,346,3.0,8.0,52,0.00,,,0.00,weatherlink.com 1.10,2013-08-25 20:26:00,
2013-08-25 16:44:00,80.8,61.0,30.26,ENE,77,2.0,8.0,51,0.00,,,0.00,weatherlink.com 1.10,2013-08-25 20:44:00,
2013-08-25 17:04:00,81.7,62.0,30.25,NNE,31,5.0,5.0,51,0.00,,,0.00,weatherlink.com 1.10,2013-08-25 21:04:00,
2013-08-25 17:22:00,80.5,61.0,30.25,East,91,1.0,8.0,52,0.00,,,0.00,weatherlink.com 1.10,2013-08-25 21:22:00,
2013-08-25 17:40:00,80.7,62.0,30.25,ENE,68,5.0,8.0,53,0.00,,,0.00,weatherlink.com 1.10,2013-08-25 21:40:00,
2013-08-25 17:58:00,80.2,62.0,30.24,NE,44,4.0,8.0,54,0.00,,,0.00,weatherlink.com 1.10,2013-08-25 21:58:00,
2013-08-25 18:18:00,79.8,61.0,30.24,East,79,5.0,7.0,52,0.00,,,0.00,weatherlink.com 1.10,2013-08-25 22:18:00,
2013-08-25 18:36:00,79.3,62.0,30.24,ENE,67,1.0,5.0,55,0.00,,,0.00,weatherlink.com 1.10,2013-08-25 22:36:00,
2013-08-25 18:54:00,78.7,62.0,30.23,NE,53,1.0,3.0,57,0.00,,,0.00,weatherlink.com 1.10,2013-08-25 22:54:00,
2013-08-25 19:14:00,78.3,64.0,30.23,ENE,60,1.0,4.0,61,0.00,,,0.00,weatherlink.com 1.10,2013-08-25 23:14:00,
2013-08-25 19:32:00,77.0,64.0,30.23,NE,44,0.0,2.0,64,0.00,,,0.00,weatherlink.com 1.10,2013-08-25 23:32:00,
2013-08-25 19:50:00,74.3,63.0,30.23,NE,44,0.0,0.0,69,0.00,,,0.00,weatherlink.com 1.10,2013-08-25 23:50:00,
2013-08-25 20:10:00,71.1,63.0,30.23,NE,44,0.0,1.0,75,0.00,,,0.00,weatherlink.com 1.10,2013-08-26 00:10:00,
2013-08-25 20:28:00,69.4,62.0,30.23,NE,44,0.0,1.0,78,0.00,,,0.00,weatherlink.com 1.10,2013-08-26 00:28:00,
2013-08-25 20:46:00,68.3,62.0,30.23,NE,44,0.0,0.0,80,0.00,,,0.00,weatherlink.com 1.10,2013-08-26 00:46:00,
2013-08-25 21:04:00,67.4,61.0,30.23,NE,44,0.0,0.0,81,0.00,,,0.00,weatherlink.com 1.10,2013-08-26 01:04:00,
2013-08-25 21:24:00,66.5,61.0,30.24,NE,44,0.0,0.0,82,0.00,,,0.00,weatherlink.com 1.10,2013-08-26 01:24:00,
2013-08-25 21:42:00,65.6,61.0,30.25,NE,44,0.0,0.0,84,0.00,,,0.00,weatherlink.com 1.10,2013-08-26 01:42:00,
2013-08-25 22:00:00,65.6,61.0,30.24,NE,44,0.0,0.0,84,0.00,,,0.00,weatherlink.com 1.10,2013-08-26 02:00:00,
2013-08-25 22:20:00,64.7,61.0,30.25,NE,44,0.0,0.0,86,0.00,,,0.00,weatherlink.com 1.10,2013-08-26 02:20:00,
2013-08-25 22:38:00,64.8,61.0,30.25,NE,44,0.0,1.0,87,0.00,,,0.00,weatherlink.com 1.10,2013-08-26 02:38:00,
2013-08-25 22:56:00,63.8,60.0,30.25,NE,44,0.0,0.0,88,0.00,,,0.00,weatherlink.com 1.10,2013-08-26 02:56:00,
2013-08-25 23:14:00,63.1,60.0,30.25,NE,44,0.0,0.0,90,0.00,,,0.00,weatherlink.com 1.10,2013-08-26 03:14:00,
2013-08-25 23:34:00,62.9,60.0,30.25,NE,51,0.0,1.0,91,0.00,,,0.00,weatherlink.com 1.10,2013-08-26 03:34:00,
2013-08-25 23:52:00,62.9,60.0,30.25,NE,51,0.0,0.0,91,0.00,,,0.00,weatherlink.com 1.10,2013-08-26 03:52:00,